| time (UTC) | temp F | wind direction | speed MPH | gust MPH | rain 1hr in | rain 24hr in | rain mn in | humidity % | barometer mb |
| 20260505180519 | 77 | 224 | 4.0 | 9.0 | 0.00 | 0.00 | 0.00 | 42 | 1006.4 |
| 20260505180020 | 78 | 167 | 3.0 | 8.0 | 0.00 | 0.00 | 0.00 | 43 | 1006.4 |
| 20260505175519 | 78 | 147 | 4.0 | 8.0 | 0.00 | 0.00 | 0.00 | 42 | 1006.4 |
| 20260505175020 | 78 | 220 | 4.0 | 9.0 | 0.00 | 0.00 | 0.00 | 40 | 1006.6 |
| 20260505174019 | 79 | 214 | 3.0 | 8.0 | 0.00 | 0.00 | 0.00 | 40 | 1006.9 |
| 20260505173520 | 79 | 260 | 2.0 | 7.0 | 0.00 | 0.00 | 0.00 | 42 | 1006.7 |
| 20260505172519 | 79 | 138 | 3.0 | 8.0 | 0.00 | 0.00 | 0.00 | 40 | 1006.7 |
| 20260505172020 | 79 | 146 | 4.0 | 12.0 | 0.00 | 0.00 | 0.00 | 39 | 1006.8 |
| 20260505170520 | 79 | 185 | 3.0 | 8.0 | 0.00 | 0.00 | 0.00 | 42 | 1007.0 |
| 20260505170019 | 79 | 205 | 2.0 | 7.0 | 0.00 | 0.00 | 0.00 | 44 | 1006.9 |
| 20260505165520 | 79 | 173 | 4.0 | 12.0 | 0.00 | 0.00 | 0.00 | 42 | 1007.1 |
| 20260505165019 | 79 | 201 | 3.0 | 7.0 | 0.00 | 0.00 | 0.00 | 39 | 1007.1 |
| 20260505164520 | 79 | 187 | 2.0 | 13.0 | 0.00 | 0.00 | 0.00 | 35 | 1007.1 |
| 20260505163519 | 79 | 269 | 3.0 | 7.0 | 0.00 | 0.00 | 0.00 | 35 | 1007.4 |
| 20260505163019 | 78 | 200 | 2.0 | 5.0 | 0.00 | 0.00 | 0.00 | 44 | 1007.6 |
| 20260505162520 | 78 | 235 | 2.0 | 6.0 | 0.00 | 0.00 | 0.00 | 40 | 1007.6 |
| 20260505161019 | 76 | 215 | 3.0 | 10.0 | 0.00 | 0.00 | 0.00 | 42 | 1008.0 |
| 20260505160519 | 75 | 224 | 3.0 | 7.0 | 0.00 | 0.00 | 0.00 | 41 | 1008.1 |
| 20260505153019 | 72 | 152 | 3.0 | 6.0 | 0.00 | 0.00 | 0.00 | 45 | 1008.2 |
| 20260505152519 | 71 | 209 | 2.0 | 7.0 | 0.00 | 0.00 | 0.00 | 48 | 1008.3 |
| 20260505151519 | 70 | 248 | 2.0 | 5.0 | 0.00 | 0.00 | 0.00 | 48 | 1008.3 |
| 20260505151018 | 70 | 235 | 1.0 | 6.0 | 0.00 | 0.00 | 0.00 | 48 | 1008.4 |
| 20260505150519 | 70 | 198 | 2.0 | 6.0 | 0.00 | 0.00 | 0.00 | 47 | 1008.4 |
| 20260505140519 | 68 | 102 | 1.0 | 3.0 | 0.00 | 0.00 | 0.00 | 52 | 1008.7 |
| 20260505125018 | 62 | 348 | 2.0 | 5.0 | 0.00 | 0.00 | 0.00 | 65 | 1008.9 |
| 20260505124519 | 62 | 215 | 2.0 | 3.0 | 0.00 | 0.00 | 0.00 | 66 | 1008.9 |
| 20260505124019 | 63 | 166 | 2.0 | 3.0 | 0.00 | 0.00 | 0.00 | 63 | 1008.8 |
| 20260505123518 | 62 | 226 | 2.0 | 5.0 | 0.00 | 0.00 | 0.00 | 64 | 1008.9 |
| 20260505123018 | 61 | 267 | 2.0 | 5.0 | 0.00 | 0.00 | 0.00 | 65 | 1008.8 |
| 20260505122518 | 62 | 235 | 2.0 | 6.0 | 0.00 | 0.00 | 0.00 | 64 | 1008.5 |
| 20260505122019 | 62 | 175 | 1.0 | 3.0 | 0.00 | 0.00 | 0.00 | 64 | 1008.6 |
| 20260505121519 | 60 | 160 | 1.0 | 5.0 | 0.00 | 0.00 | 0.00 | 66 | 1008.7 |
| 20260505121019 | 60 | 105 | 2.0 | 5.0 | 0.00 | 0.00 | 0.00 | 68 | 1008.8 |
| 20260505120519 | 59 | 235 | 2.0 | 6.0 | 0.00 | 0.00 | 0.00 | 69 | 1008.7 |
| 20260505120018 | 59 | 182 | 2.0 | 7.0 | 0.00 | 0.00 | 0.00 | 69 | 1008.7 |
| 20260505115018 | 58 | 274 | 2.0 | 6.0 | 0.00 | 0.00 | 0.00 | 71 | 1008.6 |
| 20260505114018 | 57 | 143 | 1.0 | 6.0 | 0.00 | 0.00 | 0.00 | 73 | 1008.7 |
| 20260505113519 | 57 | 325 | 2.0 | 6.0 | 0.00 | 0.00 | 0.00 | 75 | 1008.7 |
| 20260505113018 | 57 | 250 | 1.0 | 3.0 | 0.00 | 0.00 | 0.00 | 75 | 1008.6 |
| 20260505112518 | 56 | 202 | 2.0 | 3.0 | 0.00 | 0.00 | 0.00 | 75 | 1008.6 |
| 20260505112018 | 56 | 297 | 1.0 | 7.0 | 0.00 | 0.00 | 0.00 | 77 | 1008.6 |
| 20260505111518 | 55 | 192 | 2.0 | 5.0 | 0.00 | 0.00 | 0.00 | 78 | 1008.5 |
| 20260505111018 | 55 | 208 | 2.0 | 3.0 | 0.00 | 0.00 | 0.00 | 79 | 1008.5 |
| 20260505110519 | 54 | 264 | 1.0 | 6.0 | 0.00 | 0.00 | 0.00 | 79 | 1008.7 |
| 20260505102018 | 51 | 160 | 2.0 | 6.0 | 0.00 | 0.00 | 0.00 | 87 | 1008.4 |
| 20260505101519 | 50 | 197 | 1.0 | 3.0 | 0.00 | 0.00 | 0.00 | 87 | 1008.4 |
| 20260505101018 | 50 | 163 | 1.0 | 3.0 | 0.00 | 0.00 | 0.00 | 88 | 1008.2 |
| 20260505100518 | 50 | 194 | 1.0 | 2.0 | 0.00 | 0.00 | 0.00 | 88 | 1008.2 |
| 20260505100018 | 50 | 117 | 1.0 | 2.0 | 0.00 | 0.00 | 0.00 | 88 | 1008.2 |
| 20260505095518 | 50 | 168 | 1.0 | 2.0 | 0.00 | 0.00 | 0.00 | 88 | 1008.3 |
| 20260505095019 | 50 | 194 | 1.0 | 2.0 | 0.00 | 0.00 | 0.00 | 87 | 1008.3 |
| 20260505094518 | 50 | 173 | 2.0 | 5.0 | 0.00 | 0.00 | 0.00 | 87 | 1008.3 |
| 20260505093518 | 50 | 187 | 2.0 | 6.0 | 0.00 | 0.00 | 0.00 | 86 | 1008.4 |
| 20260505093018 | 50 | 174 | 2.0 | 3.0 | 0.00 | 0.00 | 0.00 | 86 | 1008.4 |
| 20260505092518 | 50 | 162 | 2.0 | 3.0 | 0.00 | 0.00 | 0.00 | 86 | 1008.4 |
| 20260505092018 | 50 | 182 | 2.0 | 5.0 | 0.00 | 0.00 | 0.00 | 86 | 1008.4 |
| 20260505091018 | 50 | 115 | 2.0 | 6.0 | 0.00 | 0.00 | 0.00 | 86 | 1008.6 |
| 20260505090518 | 50 | 157 | 1.0 | 9.0 | 0.00 | 0.00 | 0.00 | 87 | 1008.6 |
| 20260505090018 | 50 | 146 | 1.0 | 2.0 | 0.00 | 0.00 | 0.00 | 86 | 1008.6 |
| 20260505085518 | 50 | 170 | 2.0 | 3.0 | 0.00 | 0.00 | 0.00 | 85 | 1008.5 |
| 20260505085018 | 50 | 157 | 1.0 | 5.0 | 0.00 | 0.00 | 0.00 | 85 | 1008.5 |
| 20260505084518 | 50 | 160 | 2.0 | 8.0 | 0.00 | 0.00 | 0.00 | 84 | 1008.5 |
| 20260505084018 | 50 | 83 | 1.0 | 3.0 | 0.00 | 0.00 | 0.00 | 84 | 1008.5 |
| 20260505083518 | 50 | 165 | 1.0 | 2.0 | 0.00 | 0.00 | 0.00 | 84 | 1008.6 |
| 20260505083018 | 51 | 163 | 1.0 | 2.0 | 0.00 | 0.00 | 0.00 | 82 | 1008.7 |
| 20260505082518 | 51 | 191 | 1.0 | 8.0 | 0.00 | 0.00 | 0.00 | 82 | 1008.6 |
| 20260505081518 | 51 | 80 | 1.0 | 3.0 | 0.00 | 0.00 | 0.00 | 82 | 1008.8 |
| 20260505081017 | 51 | 201 | 1.0 | 5.0 | 0.00 | 0.00 | 0.00 | 82 | 1008.9 |
| 20260505080518 | 51 | 159 | 1.0 | 3.0 | 0.00 | 0.00 | 0.00 | 81 | 1008.7 |
| 20260505075518 | 50 | 133 | 1.0 | 2.0 | 0.00 | 0.00 | 0.00 | 81 | 1008.8 |
| 20260505075018 | 51 | 128 | 1.0 | 2.0 | 0.00 | 0.00 | 0.00 | 81 | 1008.9 |
| 20260505074017 | 51 | 136 | 1.0 | 2.0 | 0.00 | 0.00 | 0.00 | 80 | 1008.9 |
| 20260505073518 | 51 | 165 | 1.0 | 3.0 | 0.00 | 0.00 | 0.00 | 80 | 1008.8 |
| 20260505073018 | 51 | 149 | 1.0 | 2.0 | 0.00 | 0.00 | 0.00 | 80 | 1008.7 |
| 20260505072517 | 51 | 130 | 1.0 | 3.0 | 0.00 | 0.00 | 0.00 | 79 | 1008.7 |
| 20260505072018 | 51 | 201 | 1.0 | 2.0 | 0.00 | 0.00 | 0.00 | 79 | 1008.9 |
| 20260505071518 | 51 | 203 | 1.0 | 3.0 | 0.00 | 0.00 | 0.00 | 79 | 1008.8 |
| 20260505071017 | 51 | 224 | 1.0 | 2.0 | 0.00 | 0.00 | 0.00 | 78 | 1008.8 |
| 20260505070517 | 51 | 209 | 2.0 | 5.0 | 0.00 | 0.00 | 0.00 | 78 | 1008.9 |
| 20260505065518 | 51 | 249 | 1.0 | 3.0 | 0.00 | 0.00 | 0.00 | 78 | 1008.9 |
| 20260505065018 | 51 | 192 | 1.0 | 3.0 | 0.00 | 0.00 | 0.00 | 77 | 1008.9 |
| 20260505064518 | 51 | 168 | 1.0 | 3.0 | 0.00 | 0.00 | 0.00 | 77 | 1008.9 |
| 20260505063017 | 51 | 183 | 1.0 | 3.0 | 0.00 | 0.00 | 0.00 | 77 | 1009.0 |
| 20260505062517 | 51 | 108 | 1.0 | 2.0 | 0.00 | 0.00 | 0.00 | 76 | 1009.1 |
| 20260505062018 | 51 | 202 | 1.0 | 2.0 | 0.00 | 0.00 | 0.00 | 76 | 1009.1 |
| 20260505061017 | 51 | 186 | 1.0 | 3.0 | 0.00 | 0.00 | 0.00 | 75 | 1009.0 |
| 20260505060518 | 52 | 193 | 0.0 | 2.0 | 0.00 | 0.00 | 0.00 | 74 | 1009.1 |
| 20260505060017 | 52 | 193 | 1.0 | 2.0 | 0.00 | 0.00 | 0.00 | 74 | 1009.1 |
| 20260505055518 | 52 | 153 | 1.0 | 3.0 | 0.00 | 0.00 | 0.00 | 74 | 1009.0 |
| 20260505055018 | 51 | 154 | 1.0 | 2.0 | 0.00 | 0.00 | 0.00 | 75 | 1009.0 |
| 20260505054517 | 51 | 216 | 1.0 | 3.0 | 0.00 | 0.00 | 0.00 | 75 | 1009.1 |
| 20260505054017 | 51 | 187 | 1.0 | 2.0 | 0.00 | 0.00 | 0.00 | 75 | 1009.1 |
| 20260505053518 | 51 | 132 | 1.0 | 5.0 | 0.00 | 0.00 | 0.00 | 75 | 1009.2 |
| 20260505053017 | 51 | 197 | 0.0 | 1.0 | 0.00 | 0.00 | 0.00 | 74 | 1009.2 |
| 20260505052017 | 52 | 109 | 1.0 | 2.0 | 0.00 | 0.00 | 0.00 | 73 | 1009.0 |
| 20260505051518 | 52 | 189 | 0.0 | 2.0 | 0.00 | 0.00 | 0.00 | 72 | 1009.0 |
| 20260505051018 | 52 | 217 | 1.0 | 3.0 | 0.00 | 0.00 | 0.00 | 72 | 1009.1 |
| 20260505050518 | 52 | 175 | 1.0 | 2.0 | 0.00 | 0.00 | 0.00 | 71 | 1009.1 |
| 20260505041518 | 53 | 169 | 1.0 | 6.0 | 0.00 | 0.00 | 0.00 | 68 | 1009.3 |
| 20260505041018 | 53 | 117 | 1.0 | 3.0 | 0.00 | 0.00 | 0.00 | 67 | 1009.1 |
| 20260505040018 | 54 | 181 | 1.0 | 5.0 | 0.00 | 0.00 | 0.00 | 66 | 1009.3 |
| 20260505035517 | 54 | 205 | 1.0 | 6.0 | 0.00 | 0.00 | 0.00 | 66 | 1009.4 |
| 20260505034017 | 54 | 226 | 1.0 | 5.0 | 0.00 | 0.00 | 0.00 | 66 | 1009.2 |
| 20260505033517 | 54 | 174 | 2.0 | 5.0 | 0.00 | 0.00 | 0.00 | 65 | 1009.2 |
| 20260505033017 | 54 | 212 | 2.0 | 6.0 | 0.00 | 0.00 | 0.00 | 65 | 1009.1 |
| 20260505032517 | 54 | 185 | 2.0 | 6.0 | 0.00 | 0.00 | 0.00 | 64 | 1009.1 |
| 20260505032017 | 54 | 199 | 2.0 | 5.0 | 0.00 | 0.00 | 0.00 | 64 | 1009.1 |
| 20260505031518 | 54 | 113 | 2.0 | 6.0 | 0.00 | 0.00 | 0.00 | 63 | 1009.1 |
| 20260505031017 | 54 | 208 | 1.0 | 3.0 | 0.00 | 0.00 | 0.00 | 63 | 1009.2 |
| 20260505030517 | 54 | 155 | 2.0 | 5.0 | 0.00 | 0.00 | 0.00 | 63 | 1009.2 |
| 20260505030017 | 54 | 192 | 1.0 | 2.0 | 0.00 | 0.00 | 0.00 | 63 | 1009.2 |
| 20260505025517 | 55 | 185 | 2.0 | 3.0 | 0.00 | 0.00 | 0.00 | 62 | 1009.1 |
| 20260505024517 | 55 | 189 | 1.0 | 5.0 | 0.00 | 0.00 | 0.00 | 61 | 1009.1 |
| 20260505023517 | 55 | 185 | 2.0 | 5.0 | 0.00 | 0.00 | 0.00 | 60 | 1009.1 |
| 20260505023017 | 55 | 196 | 2.0 | 3.0 | 0.00 | 0.00 | 0.00 | 60 | 1009.1 |
| 20260505022517 | 55 | 195 | 2.0 | 6.0 | 0.00 | 0.00 | 0.00 | 60 | 1009.2 |
| 20260505022017 | 55 | 206 | 3.0 | 8.0 | 0.00 | 0.00 | 0.00 | 59 | 1009.3 |
| 20260505021517 | 55 | 226 | 2.0 | 6.0 | 0.00 | 0.00 | 0.00 | 59 | 1009.3 |
| 20260505021016 | 55 | 175 | 1.0 | 3.0 | 0.00 | 0.00 | 0.00 | 59 | 1009.3 |
| 20260505020517 | 56 | 187 | 2.0 | 5.0 | 0.00 | 0.00 | 0.00 | 57 | 1009.3 |
| 20260505020017 | 56 | 182 | 2.0 | 6.0 | 0.00 | 0.00 | 0.00 | 56 | 1009.3 |
| 20260505015517 | 56 | 191 | 2.0 | 5.0 | 0.00 | 0.00 | 0.00 | 56 | 1009.1 |
| 20260505015017 | 56 | 235 | 1.0 | 3.0 | 0.00 | 0.00 | 0.00 | 55 | 1009.1 |
| 20260505014517 | 56 | 157 | 2.0 | 5.0 | 0.00 | 0.00 | 0.00 | 55 | 1009.2 |
| 20260505014018 | 56 | 205 | 2.0 | 8.0 | 0.00 | 0.00 | 0.00 | 55 | 1009.1 |
| 20260505013517 | 57 | 193 | 1.0 | 6.0 | 0.00 | 0.00 | 0.00 | 55 | 1009.1 |
| 20260505012516 | 57 | 224 | 2.0 | 8.0 | 0.00 | 0.00 | 0.00 | 53 | 1008.9 |
| 20260505012017 | 57 | 199 | 2.0 | 6.0 | 0.00 | 0.00 | 0.00 | 52 | 1008.9 |
| 20260505011517 | 57 | 142 | 2.0 | 7.0 | 0.00 | 0.00 | 0.00 | 52 | 1008.7 |
| 20260505010517 | 57 | 115 | 3.0 | 8.0 | 0.00 | 0.00 | 0.00 | 52 | 1008.7 |
| 20260505005516 | 58 | 155 | 2.0 | 6.0 | 0.00 | 0.00 | 0.00 | 51 | 1008.3 |
| 20260505005017 | 58 | 132 | 3.0 | 7.0 | 0.00 | 0.00 | 0.00 | 49 | 1008.2 |
| 20260505004516 | 58 | 184 | 3.0 | 8.0 | 0.00 | 0.00 | 0.00 | 49 | 1008.2 |
| 20260505004017 | 59 | 201 | 2.0 | 5.0 | 0.00 | 0.00 | 0.00 | 48 | 1008.2 |
| 20260505003516 | 59 | 180 | 1.0 | 5.0 | 0.00 | 0.00 | 0.00 | 49 | 1008.2 |
| 20260505003017 | 59 | 181 | 2.0 | 10.0 | 0.00 | 0.00 | 0.00 | 48 | 1007.9 |
| 20260505002517 | 59 | 232 | 3.0 | 7.0 | 0.00 | 0.00 | 0.00 | 48 | 1007.7 |
| 20260505002016 | 59 | 216 | 2.0 | 6.0 | 0.00 | 0.00 | 0.00 | 47 | 1007.6 |
| 20260505001017 | 60 | 202 | 2.0 | 8.0 | 0.00 | 0.00 | 0.00 | 47 | 1007.5 |
| 20260505000517 | 60 | 269 | 3.0 | 8.0 | 0.00 | 0.00 | 0.00 | 45 | 1007.1 |
| 20260504235016 | 60 | 216 | 2.0 | 5.0 | 0.00 | 0.00 | 0.00 | 45 | 1007.1 |
| 20260504234517 | 61 | 194 | 1.0 | 6.0 | 0.00 | 0.00 | 0.00 | 46 | 1006.9 |
| 20260504234016 | 61 | 123 | 3.0 | 10.0 | 0.00 | 0.00 | 0.00 | 44 | 1006.9 |
| 20260504233517 | 62 | 180 | 4.0 | 9.0 | 0.00 | 0.00 | 0.00 | 43 | 1006.8 |
| 20260504233016 | 62 | 168 | 2.0 | 6.0 | 0.00 | 0.00 | 0.00 | 43 | 1006.6 |
| 20260504232517 | 62 | 199 | 3.0 | 8.0 | 0.00 | 0.00 | 0.00 | 42 | 1006.6 |
| 20260504232016 | 62 | 200 | 5.0 | 8.0 | 0.00 | 0.00 | 0.00 | 43 | 1006.6 |
| 20260504231516 | 63 | 248 | 5.0 | 9.0 | 0.00 | 0.00 | 0.00 | 43 | 1006.7 |
| 20260504230516 | 63 | 221 | 2.0 | 5.0 | 0.00 | 0.00 | 0.00 | 42 | 1006.4 |
| 20260504230017 | 64 | 214 | 2.0 | 8.0 | 0.00 | 0.00 | 0.00 | 42 | 1006.2 |
| 20260504225516 | 64 | 3 | 3.0 | 6.0 | 0.00 | 0.00 | 0.00 | 39 | 1006.2 |
| 20260504225017 | 64 | 206 | 4.0 | 12.0 | 0.00 | 0.00 | 0.00 | 39 | 1006.2 |
| 20260504224516 | 65 | 213 | 2.0 | 9.0 | 0.00 | 0.00 | 0.00 | 38 | 1006.1 |
| 20260504224017 | 65 | 167 | 3.0 | 7.0 | 0.00 | 0.00 | 0.00 | 38 | 1006.0 |
| 20260504223516 | 65 | 334 | 2.0 | 7.0 | 0.00 | 0.00 | 0.00 | 38 | 1005.8 |
| 20260504222517 | 65 | 241 | 3.0 | 9.0 | 0.00 | 0.00 | 0.00 | 37 | 1006.0 |
| 20260504222016 | 66 | 315 | 4.0 | 10.0 | 0.00 | 0.00 | 0.00 | 36 | 1005.9 |
| 20260504215517 | 67 | 244 | 2.0 | 7.0 | 0.00 | 0.00 | 0.00 | 33 | 1005.7 |
| 20260504215016 | 68 | 200 | 4.0 | 12.0 | 0.00 | 0.00 | 0.00 | 32 | 1005.7 |
| 20260504214516 | 68 | 200 | 3.0 | 8.0 | 0.00 | 0.00 | 0.00 | 31 | 1005.9 |
| 20260504214016 | 69 | 230 | 2.0 | 5.0 | 0.00 | 0.00 | 0.00 | 29 | 1005.7 |
| 20260504213016 | 70 | 252 | 2.0 | 6.0 | 0.00 | 0.00 | 0.00 | 30 | 1005.7 |
| 20260504212016 | 71 | 219 | 2.0 | 6.0 | 0.00 | 0.00 | 0.00 | 27 | 1005.5 |
| 20260504210516 | 71 | 216 | 3.0 | 7.0 | 0.00 | 0.00 | 0.00 | 26 | 1005.4 |
| 20260504210016 | 71 | 250 | 4.0 | 8.0 | 0.00 | 0.00 | 0.00 | 27 | 1005.5 |
| 20260504205516 | 71 | 228 | 3.0 | 7.0 | 0.00 | 0.00 | 0.00 | 26 | 1005.5 |
| 20260504205016 | 71 | 232 | 5.0 | 9.0 | 0.00 | 0.00 | 0.00 | 26 | 1005.6 |
| 20260504204516 | 71 | 248 | 3.0 | 8.0 | 0.00 | 0.00 | 0.00 | 26 | 1005.5 |
| 20260504204016 | 71 | 224 | 3.0 | 10.0 | 0.00 | 0.00 | 0.00 | 25 | 1005.4 |
| 20260504203517 | 71 | 267 | 3.0 | 10.0 | 0.00 | 0.00 | 0.00 | 25 | 1005.5 |
| 20260504203016 | 71 | 195 | 3.0 | 9.0 | 0.00 | 0.00 | 0.00 | 25 | 1005.7 |
| 20260504202517 | 71 | 231 | 4.0 | 9.0 | 0.00 | 0.00 | 0.00 | 26 | 1005.7 |
| 20260504202016 | 71 | 146 | 4.0 | 7.0 | 0.00 | 0.00 | 0.00 | 27 | 1005.6 |
| 20260504201516 | 71 | 218 | 3.0 | 10.0 | 0.00 | 0.00 | 0.00 | 25 | 1005.7 |
| 20260504201016 | 71 | 236 | 4.0 | 12.0 | 0.00 | 0.00 | 0.00 | 25 | 1005.7 |
| 20260504200516 | 72 | 232 | 1.0 | 7.0 | 0.00 | 0.00 | 0.00 | 28 | 1005.7 |
| 20260504200016 | 71 | 280 | 2.0 | 6.0 | 0.00 | 0.00 | 0.00 | 27 | 1005.8 |
| 20260504195516 | 71 | 232 | 2.0 | 6.0 | 0.00 | 0.00 | 0.00 | 26 | 1005.8 |
| 20260504195016 | 71 | 256 | 5.0 | 9.0 | 0.00 | 0.00 | 0.00 | 26 | 1005.8 |
| 20260504194015 | 72 | 185 | 5.0 | 9.0 | 0.00 | 0.00 | 0.00 | 23 | 1005.7 |
| 20260504193515 | 71 | 210 | 4.0 | 10.0 | 0.00 | 0.00 | 0.00 | 24 | 1005.7 |
| 20260504192516 | 71 | 232 | 4.0 | 13.0 | 0.00 | 0.00 | 0.00 | 24 | 1005.7 |
| 20260504192016 | 72 | 232 | 3.0 | 7.0 | 0.00 | 0.00 | 0.00 | 27 | 1005.7 |
| 20260504191515 | 71 | 237 | 4.0 | 8.0 | 0.00 | 0.00 | 0.00 | 25 | 1005.7 |
| 20260504191016 | 72 | 152 | 2.0 | 9.0 | 0.00 | 0.00 | 0.00 | 23 | 1005.7 |
| 20260504190016 | 71 | 242 | 4.0 | 14.0 | 0.00 | 0.00 | 0.00 | 25 | 1005.8 |
| 20260504185516 | 71 | 183 | 5.0 | 12.0 | 0.00 | 0.00 | 0.00 | 25 | 1005.9 |
| 20260504185016 | 71 | 227 | 5.0 | 9.0 | 0.00 | 0.00 | 0.00 | 25 | 1005.9 |
| 20260504184516 | 71 | 150 | 3.0 | 9.0 | 0.00 | 0.00 | 0.00 | 24 | 1005.9 |
| 20260504184016 | 70 | 255 | 5.0 | 12.0 | 0.00 | 0.00 | 0.00 | 24 | 1006.0 |
| 20260504183516 | 70 | 238 | 4.0 | 9.0 | 0.00 | 0.00 | 0.00 | 23 | 1006.0 |
| 20260504183016 | 71 | 174 | 3.0 | 9.0 | 0.00 | 0.00 | 0.00 | 23 | 1006.2 |